Weather at Downsview Airport

Public forecast

Using degrees Celsius for public forecast. Weather courtesy of forecast.io.

Closest aviation weather report (METAR) to Downsview Airport

Closest report is Billy Bishop Toronto City Centre Airport, 7.5 nm (14.0 km) SSE.

2024/05/30 06:00 (retrieved 42 minutes ago)

CYTZ 300600Z AUTO 03011G16KT 330V060 9SM CLR 13/02 A3007 RMK SLP186

Closest aviation forecast (TAF) to Downsview Airport

Closest forecast is Toronto Lester B. Pearson International Airport, 8.2 nm (15.1 km) WSW.

2024/05/30 06:42 (retrieved 27 seconds ago)

TAF CYYZ 300540Z 3006/3112 35012KT P6SM SKC FM301500 35008G18KT P6SM SKC BECMG 3018/3020 34012KT RMK NXT FCST BY 300900Z